Washburn, ME (04786)

8:11 AM EDT on June 28, 2017 (GMT -0400)
State Rd | | Change Station

Elev 514 ft 46.74 °N, 68.14 °W | Updated 22 seconds ago

Overcast
Overcast
56.5 °F
Feels Like 56.5 °F
N
3.0
Wind Variable Wind from SW

Today
High -- | Low -- °F
--% Chance of Precip.
Yesterday
High -- | Low -- °F
Precip. -- in
Pressure 29.90 in
Visibility 10.0 miles
Clouds Scattered Clouds 400 ft
Mostly Cloudy 4700 ft
Overcast 6500 ft
Dew Point 56 °F
Humidity 98%
Rainfall 0.09 in
Snow Depth Not available.
4:41 AM 8:30 PM
Waxing Crescent, 25% visible
METAR KCAR 281154Z AUTO 21003KT 10SM SCT004 BKN047 OVC065 13/12 A2988 RMK AO2 RAB10E48 SLP123 P0000 60015 70107 T01330122 10133 20128 53003
Pressure 29.90 in
Visibility 10.0 miles
Clouds Scattered Clouds 400 ft
Mostly Cloudy 4700 ft
Overcast 6500 ft
Dew Point 56 °F
Humidity 98%
Rainfall 0.09 in
Snow Depth Not available.
4:41 AM 8:30 PM
Waxing Crescent, 25% visible
METAR KCAR 281154Z AUTO 21003KT 10SM SCT004 BKN047 OVC065 13/12 A2988 RMK AO2 RAB10E48 SLP123 P0000 60015 70107 T01330122 10133 20128 53003

Get Severe Weather Alerts

Thanks for signing up!

Be on the lookout for a verification email in your inbox.

You'll start receiving the daily forecast at 6 AM.

×

10-Day Weather Forecast

Almanac

Astronomy

Jun. 28, 2017 Rise Set
Actual Time
Civil Twilight
Nautical Twilight
Astronomical Twilight
Moon
Length of Visible Light
Length of Day
Tomorrow will be .
, % of the Moon is Illuminated

Today's Extremes

State Highs State Lows

Community

WunderPhotos

Category 6

Welcome to Category 6. This is the collective home for Weather Underground's featured writeups by Dr. Jeff Masters (right), Bob Henson (left), Chris Burt, and other regular contributors.

Nearby

Air Quality

  Air Quality AQ Index Pollutant
Not available.

Snow Depth

Station Depth Elevation

Earthquake Activity

City Distance Mag. Time & Date
Minimum magnitude displayed is 2.5.

Coastal Water Temperatures

Place Temperature

Stations

Nearby Weather Stations

Station Location Temp. Windchill Dew Point Humidity Wind Precip. Elev Updated Type
                   

Watches & Warnings

There are currently no watches in effect.